createdAt,value
2018-05-14T00:00:37.469Z,93.34
2018-05-14T00:02:40.830Z,93.75
2018-05-14T00:04:44.981Z,93.73
2018-05-14T00:06:48.348Z,93.97
2018-05-14T00:08:52.438Z,93.85
2018-05-14T00:10:55.873Z,94.57
2018-05-14T00:12:59.199Z,94.21
2018-05-14T00:15:02.568Z,94.13
2018-05-14T00:17:05.880Z,94.35
2018-05-14T00:19:09.254Z,94.00
2018-05-14T00:21:12.689Z,93.70
2018-05-14T00:23:17.044Z,93.88
2018-05-14T00:25:20.436Z,93.97
2018-05-14T00:27:23.873Z,93.84
2018-05-14T00:29:27.224Z,94.13
2018-05-14T00:31:30.562Z,93.56
2018-05-14T00:33:34.026Z,93.81
2018-05-14T00:35:38.183Z,94.10
2018-05-14T00:37:42.975Z,94.27
2018-05-14T00:39:46.324Z,94.04
2018-05-14T00:41:49.876Z,94.28
2018-05-14T00:43:53.246Z,94.01
2018-05-14T00:45:56.626Z,93.88
2018-05-14T00:47:59.922Z,94.22
2018-05-14T00:50:03.283Z,93.95
2018-05-14T00:52:07.398Z,93.85
2018-05-14T00:54:10.738Z,93.81
2018-05-14T00:56:14.047Z,94.01
2018-05-14T00:58:17.396Z,94.13
2018-05-14T01:00:20.722Z,94.43
2018-05-14T01:02:24.063Z,94.69
2018-05-14T01:04:27.445Z,94.99
2018-05-14T01:06:31.632Z,95.13
2018-05-14T01:08:34.935Z,95.32
2018-05-14T01:10:39.061Z,95.15
2018-05-14T01:12:43.871Z,95.20
2018-05-14T01:14:47.949Z,95.49
2018-05-14T01:16:52.114Z,95.54
2018-05-14T01:18:55.460Z,95.42
2018-05-14T01:20:58.762Z,95.31
2018-05-14T01:23:02.245Z,95.61
2018-05-14T01:25:05.632Z,95.17
2018-05-14T01:27:09.529Z,95.21
2018-05-14T01:29:12.898Z,94.99
2018-05-14T01:31:16.240Z,94.34
2018-05-14T01:33:19.681Z,94.22
2018-05-14T01:35:23.276Z,93.94
2018-05-14T01:37:26.582Z,94.27
2018-05-14T01:39:30.690Z,94.37
2018-05-14T01:41:34.104Z,94.54
2018-05-14T01:43:37.426Z,94.62
2018-05-14T01:45:41.003Z,94.66
2018-05-14T01:47:44.429Z,94.69
2018-05-14T01:49:48.596Z,94.69
2018-05-14T01:51:52.712Z,95.04
2018-05-14T01:53:56.015Z,95.17
2018-05-14T01:55:59.369Z,94.74
2018-05-14T01:58:02.669Z,94.69
2018-05-14T02:00:06.792Z,94.96
2018-05-14T02:02:10.122Z,95.11
2018-05-14T02:04:14.228Z,95.15
2018-05-14T02:06:18.304Z,94.22
2018-05-14T02:08:21.667Z,94.21
2018-05-14T02:10:24.977Z,94.28
2018-05-14T02:12:28.376Z,94.17
2018-05-14T02:14:32.576Z,94.25
2018-05-14T02:16:35.933Z,94.74
2018-05-14T02:18:39.249Z,94.44
2018-05-14T02:20:42.609Z,94.06
2018-05-14T02:22:46.727Z,93.79
2018-05-14T02:24:50.921Z,93.74
2018-05-14T02:26:54.251Z,94.34
2018-05-14T02:28:57.607Z,94.59
2018-05-14T02:31:01.018Z,94.80
2018-05-14T02:33:04.403Z,94.77
2018-05-14T02:35:07.748Z,94.23
2018-05-14T02:37:11.172Z,94.15
2018-05-14T02:39:15.291Z,94.32
2018-05-14T02:41:18.595Z,94.64
2018-05-14T02:43:22.013Z,94.80
2018-05-14T02:45:25.315Z,94.83
2018-05-14T02:47:29.441Z,94.57
2018-05-14T02:49:32.752Z,94.39
2018-05-14T02:51:36.066Z,94.39
2018-05-14T02:53:40.203Z,93.78
2018-05-14T02:55:43.548Z,93.62
2018-05-14T02:57:46.950Z,93.71
2018-05-14T02:59:51.077Z,93.68
2018-05-14T03:01:55.208Z,94.10
2018-05-14T03:03:58.553Z,94.77
2018-05-14T03:06:01.882Z,94.73
2018-05-14T03:08:05.231Z,94.60
2018-05-14T03:10:08.568Z,94.13
2018-05-14T03:12:12.011Z,94.11
2018-05-14T03:14:17.165Z,94.29
2018-05-14T03:16:20.536Z,94.98
2018-05-14T03:18:23.878Z,94.81
2018-05-14T03:20:27.211Z,94.74
2018-05-14T03:22:30.537Z,94.70
2018-05-14T03:24:33.922Z,93.95
2018-05-14T03:26:37.265Z,93.76
2018-05-14T03:28:40.587Z,93.89
2018-05-14T03:30:44.689Z,94.33
2018-05-14T03:32:48.054Z,94.50
2018-05-14T03:34:51.343Z,94.19
2018-05-14T03:36:54.729Z,94.67
2018-05-14T03:38:58.113Z,95.06
2018-05-14T03:41:01.489Z,95.01
2018-05-14T03:43:05.588Z,94.93
2018-05-14T03:45:08.943Z,94.71
2018-05-14T03:47:12.256Z,95.02
2018-05-14T03:49:15.613Z,94.83
2018-05-14T03:51:19.019Z,94.37
2018-05-14T03:53:22.360Z,94.81
2018-05-14T03:55:26.452Z,94.75
2018-05-14T03:57:29.819Z,95.06
2018-05-14T03:59:50.818Z,94.52
2018-05-14T04:04:58.875Z,94.93
2018-05-14T04:07:02.215Z,95.03
2018-05-14T04:09:06.405Z,95.45
2018-05-14T04:11:10.895Z,95.04
2018-05-14T04:13:14.244Z,95.31
2018-05-14T04:15:17.591Z,95.61
2018-05-14T04:17:21.050Z,95.65
2018-05-14T04:19:24.436Z,95.45
2018-05-14T04:21:28.033Z,95.75
2018-05-14T04:23:31.406Z,95.11
2018-05-14T04:27:48.836Z,95.82
2018-05-14T04:29:52.252Z,95.60
2018-05-14T04:31:55.620Z,95.53
2018-05-14T04:33:58.957Z,95.16
2018-05-14T04:36:02.330Z,95.37
2018-05-14T04:38:05.684Z,95.75
2018-05-14T04:40:09.778Z,95.81
2018-05-14T04:42:13.240Z,95.64
2018-05-14T04:44:16.610Z,95.37
2018-05-14T04:46:19.948Z,95.29
2018-05-14T04:48:23.317Z,95.37
2018-05-14T04:50:26.739Z,95.48
2018-05-14T04:52:31.151Z,95.49
2018-05-14T04:54:34.601Z,95.22
2018-05-14T04:56:37.972Z,95.32
2018-05-14T04:58:41.353Z,95.61
2018-05-14T05:00:45.470Z,95.52
2018-05-14T05:02:48.843Z,95.76
2018-05-14T05:04:52.584Z,95.67
2018-05-14T05:06:56.448Z,95.75
2018-05-14T05:09:00.527Z,95.57
2018-05-14T05:11:04.635Z,95.13
2018-05-14T05:13:08.017Z,94.74
2018-05-14T05:15:11.455Z,94.56
2018-05-14T05:17:15.137Z,94.66
2018-05-14T05:19:18.433Z,94.32
2018-05-14T05:21:22.836Z,94.24
2018-05-14T05:23:27.676Z,94.57
2018-05-14T05:25:31.410Z,94.41
2018-05-14T05:27:34.758Z,94.49
2018-05-14T05:29:38.185Z,94.71
2018-05-14T05:31:42.276Z,94.01
2018-05-14T05:33:45.933Z,93.18
2018-05-14T05:35:49.320Z,92.84
2018-05-14T05:37:52.700Z,92.71
2018-05-14T05:39:56.084Z,93.03
2018-05-14T05:42:00.204Z,93.51
2018-05-14T05:44:03.652Z,93.96
2018-05-14T05:46:07.028Z,93.40
2018-05-14T05:48:10.361Z,92.92
2018-05-14T05:50:13.830Z,93.77
2018-05-14T05:52:17.973Z,93.97
2018-05-14T05:54:21.611Z,93.72
2018-05-14T05:56:25.179Z,93.09
2018-05-14T05:58:29.425Z,93.19
2018-05-14T06:00:32.862Z,93.00
2018-05-14T06:02:36.306Z,92.74
2018-05-14T06:04:39.649Z,92.79
2018-05-14T06:06:43.052Z,92.95
2018-05-14T06:08:47.295Z,93.27
2018-05-14T06:10:50.785Z,93.22
2018-05-14T06:12:54.279Z,93.61
2018-05-14T06:14:57.837Z,93.21
2018-05-14T06:17:01.339Z,92.21
2018-05-14T06:19:04.788Z,92.75
2018-05-14T06:21:08.167Z,92.41
2018-05-14T06:23:12.326Z,92.82
2018-05-14T06:25:18.166Z,92.54
2018-05-14T06:27:21.580Z,92.20
2018-05-14T06:29:25.012Z,91.33
2018-05-14T06:31:28.408Z,90.96
2018-05-14T06:33:31.981Z,90.06
2018-05-14T06:35:36.264Z,90.64
2018-05-14T06:37:39.680Z,91.00
2018-05-14T06:39:43.176Z,90.23
2018-05-14T06:41:46.660Z,90.28
2018-05-14T06:43:49.988Z,90.04
2018-05-14T06:45:53.435Z,91.08
2018-05-14T06:47:56.818Z,89.96
2018-05-14T06:50:00.264Z,90.69
2018-05-14T06:52:03.633Z,90.09
2018-05-14T06:54:07.799Z,89.32
2018-05-14T06:56:11.594Z,89.41
2018-05-14T06:58:15.688Z,89.74
2018-05-14T07:00:19.001Z,89.74
2018-05-14T07:02:22.381Z,89.78
2018-05-14T07:04:25.788Z,88.46
2018-05-14T07:06:29.156Z,89.27
2018-05-14T07:08:32.458Z,89.43
2018-05-14T07:10:35.980Z,89.83
2018-05-14T07:12:39.334Z,89.29
2018-05-14T07:14:42.735Z,88.30
2018-05-14T07:16:46.153Z,87.87
2018-05-14T07:18:50.365Z,87.91
2018-05-14T07:20:54.059Z,87.35
2018-05-14T07:22:57.454Z,85.95
2018-05-14T07:25:00.980Z,84.09
2018-05-14T07:27:04.610Z,84.76
2018-05-14T07:31:24.079Z,85.01
2018-05-14T07:33:27.407Z,84.33
2018-05-14T07:35:31.705Z,85.04
2018-05-14T07:37:35.849Z,84.80
2018-05-14T07:39:39.289Z,84.87
2018-05-14T07:41:42.626Z,83.70
2018-05-14T07:43:46.014Z,82.63
2018-05-14T07:45:50.092Z,83.75
2018-05-14T07:48:11.096Z,84.35
2018-05-14T07:50:14.436Z,85.93
2018-05-14T07:54:28.138Z,84.90
2018-05-14T07:56:31.713Z,85.21
2018-05-14T07:58:35.898Z,84.74
2018-05-14T08:00:40.067Z,82.94
2018-05-14T08:02:43.529Z,82.03
2018-05-14T08:04:46.906Z,81.65
2018-05-14T08:06:50.379Z,81.81
2018-05-14T08:08:53.931Z,80.75
2018-05-14T08:10:57.283Z,80.85
2018-05-14T08:13:00.815Z,81.31
2018-05-14T08:15:04.345Z,79.98
2018-05-14T08:17:07.703Z,79.73
2018-05-14T08:19:11.087Z,80.83
2018-05-14T08:21:14.509Z,81.11
2018-05-14T08:23:18.666Z,80.71
2018-05-14T08:25:22.130Z,79.68
2018-05-14T08:27:25.553Z,78.65
2018-05-14T08:29:28.932Z,77.69
2018-05-14T08:31:32.354Z,77.37
2018-05-14T08:33:35.817Z,76.69
2018-05-14T08:35:39.227Z,76.49
2018-05-14T08:37:42.569Z,76.59
2018-05-14T08:39:46.774Z,75.68
2018-05-14T08:41:50.164Z,75.85
2018-05-14T08:43:53.545Z,74.71
2018-05-14T08:45:56.999Z,74.27
2018-05-14T08:48:00.475Z,74.13
2018-05-14T08:50:04.699Z,74.33
2018-05-14T08:52:08.072Z,73.68
2018-05-14T08:54:12.320Z,74.23
2018-05-14T08:56:15.607Z,74.10
2018-05-14T08:58:18.974Z,72.73
2018-05-14T09:00:22.417Z,72.89
2018-05-14T09:02:25.814Z,71.88
2018-05-14T09:04:29.201Z,71.44
2018-05-14T09:06:32.612Z,71.17
2018-05-14T09:08:35.994Z,71.23
2018-05-14T09:10:39.522Z,71.32
2018-05-14T09:12:43.787Z,70.89
2018-05-14T09:14:47.521Z,70.68
2018-05-14T09:16:51.982Z,71.31
2018-05-14T09:18:55.456Z,71.21
2018-05-14T09:20:59.675Z,70.96
2018-05-14T09:23:03.813Z,72.17
2018-05-14T09:25:07.291Z,72.52
2018-05-14T09:27:10.838Z,72.49
2018-05-14T09:29:14.519Z,72.12
2018-05-14T09:31:18.055Z,71.69
2018-05-14T09:33:21.400Z,71.50
2018-05-14T09:35:24.809Z,71.09
2018-05-14T09:37:28.196Z,71.96
2018-05-14T09:39:31.629Z,70.60
2018-05-14T09:41:35.036Z,68.96
2018-05-14T09:43:39.212Z,69.67
2018-05-14T09:45:42.657Z,70.46
2018-05-14T09:47:46.007Z,70.01
2018-05-14T09:49:49.318Z,70.06
2018-05-14T09:51:52.724Z,70.78
2018-05-14T09:53:56.184Z,70.17
2018-05-14T09:55:59.768Z,69.42
2018-05-14T09:58:03.319Z,68.23
2018-05-14T10:00:06.729Z,67.82
2018-05-14T10:02:10.123Z,68.24
2018-05-14T10:04:13.574Z,68.62
2018-05-14T10:06:17.789Z,68.34
2018-05-14T10:08:21.386Z,68.56
2018-05-14T10:10:24.738Z,67.77
2018-05-14T10:12:28.205Z,66.73
2018-05-14T10:14:32.548Z,67.87
2018-05-14T10:16:36.255Z,66.99
2018-05-14T10:18:39.810Z,68.08
2018-05-14T10:20:43.332Z,67.86
2018-05-14T10:22:46.748Z,67.71
2018-05-14T10:24:53.243Z,67.28
2018-05-14T10:26:56.603Z,66.54
2018-05-14T10:29:00.029Z,66.78
2018-05-14T10:31:03.917Z,66.57
2018-05-14T10:33:07.286Z,65.67
2018-05-14T10:35:10.672Z,66.61
2018-05-14T10:37:14.872Z,66.86
2018-05-14T10:39:18.266Z,65.50
2018-05-14T10:41:21.630Z,65.45
2018-05-14T10:43:25.868Z,65.46
2018-05-14T10:45:29.247Z,64.91
2018-05-14T10:47:32.707Z,64.33
2018-05-14T10:49:36.200Z,64.46
2018-05-14T10:51:39.818Z,65.59
2018-05-14T10:53:43.259Z,65.49
2018-05-14T10:55:46.628Z,64.30
2018-05-14T10:57:50.041Z,64.89
2018-05-14T10:59:53.446Z,65.02
2018-05-14T11:01:56.894Z,63.55
2018-05-14T11:04:00.905Z,63.93
2018-05-14T11:06:05.555Z,63.15
2018-05-14T11:08:09.476Z,62.92
2018-05-14T11:10:13.035Z,63.33
2018-05-14T11:12:17.264Z,62.46
2018-05-14T11:14:20.875Z,63.10
2018-05-14T11:16:24.344Z,62.12
2018-05-14T11:18:27.852Z,62.28
2018-05-14T11:20:31.298Z,62.13
2018-05-14T11:22:36.166Z,61.34
2018-05-14T11:24:39.549Z,60.44
2018-05-14T11:26:43.025Z,60.63
2018-05-14T11:28:46.441Z,60.34
2018-05-14T11:30:49.859Z,60.05
2018-05-14T11:32:53.433Z,58.60
2018-05-14T11:34:56.783Z,59.33
2018-05-14T11:37:00.211Z,59.22
2018-05-14T11:39:06.634Z,58.71
2018-05-14T11:41:09.958Z,58.12
2018-05-14T11:45:37.095Z,57.57
2018-05-14T11:47:40.515Z,57.46
2018-05-14T11:49:43.956Z,57.60
2018-05-14T11:51:47.387Z,56.14
2018-05-14T11:53:50.738Z,54.79
2018-05-14T11:55:54.133Z,55.50
2018-05-14T11:57:57.576Z,54.94
2018-05-14T12:00:01.804Z,53.96
2018-05-14T12:02:05.244Z,53.98
2018-05-14T12:04:09.477Z,55.10
2018-05-14T12:06:13.009Z,55.58
2018-05-14T12:08:16.444Z,53.75
2018-05-14T12:10:19.994Z,54.12
2018-05-14T12:12:23.528Z,54.73
2018-05-14T12:14:27.714Z,53.54
2018-05-14T12:16:31.148Z,52.55
2018-05-14T12:18:34.508Z,52.37
2018-05-14T12:20:38.077Z,51.63
2018-05-14T12:22:41.676Z,51.26
2018-05-14T12:24:45.981Z,51.41
2018-05-14T12:26:49.373Z,50.47
2018-05-14T12:28:52.973Z,50.21
2018-05-14T12:30:56.789Z,49.64
2018-05-14T12:33:01.028Z,50.48
2018-05-14T12:35:04.515Z,49.79
2018-05-14T12:37:08.295Z,49.80
2018-05-14T12:39:11.733Z,48.84
2018-05-14T12:41:15.145Z,49.15
2018-05-14T12:43:18.535Z,49.22
2018-05-14T12:45:21.960Z,48.77
2018-05-14T12:47:25.393Z,48.56
2018-05-14T12:49:28.811Z,47.91
2018-05-14T12:51:32.384Z,47.42
2018-05-14T12:53:35.809Z,48.40
2018-05-14T12:55:39.958Z,48.00
2018-05-14T12:57:43.386Z,47.67
2018-05-14T12:59:46.940Z,48.88
2018-05-14T13:01:50.546Z,48.44
2018-05-14T13:03:53.944Z,49.10
2018-05-14T13:05:57.629Z,47.65
2018-05-14T13:08:01.257Z,47.52
2018-05-14T13:10:05.144Z,48.35
2018-05-14T13:12:08.767Z,47.81
2018-05-14T13:14:12.312Z,47.54
2018-05-14T13:16:16.507Z,47.30
2018-05-14T13:18:20.463Z,47.98
2018-05-14T13:20:23.893Z,46.26
2018-05-14T13:22:27.521Z,45.50
2018-05-14T13:24:31.709Z,45.69
2018-05-14T13:26:35.098Z,45.43
2018-05-14T13:28:38.654Z,45.59
2018-05-14T13:30:42.019Z,45.84
2018-05-14T13:32:46.231Z,45.91
2018-05-14T13:34:50.547Z,45.63
2018-05-14T13:36:54.735Z,45.64
2018-05-14T13:38:58.422Z,46.08
2018-05-14T13:41:01.853Z,45.70
2018-05-14T13:43:06.039Z,45.11
2018-05-14T13:45:09.410Z,43.72
2018-05-14T13:47:12.799Z,43.39
2018-05-14T13:49:16.216Z,43.68
2018-05-14T13:51:19.592Z,43.44
2018-05-14T13:53:22.981Z,43.86
2018-05-14T13:55:26.382Z,44.49
2018-05-14T13:57:29.878Z,44.08
2018-05-14T13:59:33.210Z,43.64
2018-05-14T14:01:36.752Z,44.00
2018-05-14T14:03:40.135Z,43.01
2018-05-14T14:05:43.950Z,42.54
2018-05-14T14:07:47.385Z,41.83
2018-05-14T14:09:50.826Z,42.33
2018-05-14T14:11:54.225Z,42.81
2018-05-14T14:13:57.580Z,43.02
2018-05-14T14:16:01.759Z,43.39
2018-05-14T14:18:05.188Z,43.10
2018-05-14T14:20:08.597Z,41.99
2018-05-14T14:22:11.942Z,41.74
2018-05-14T14:24:15.400Z,41.30
2018-05-14T14:26:18.720Z,41.24
2018-05-14T14:28:22.146Z,40.29
2018-05-14T14:30:27.746Z,40.64
2018-05-14T14:32:31.157Z,40.28
2018-05-14T14:34:34.536Z,40.19
2018-05-14T14:36:37.977Z,39.27
2018-05-14T14:38:42.159Z,39.17
2018-05-14T14:40:45.632Z,39.49
2018-05-14T14:42:49.147Z,39.59
2018-05-14T14:44:52.810Z,38.40
2018-05-14T14:46:56.304Z,38.79
2018-05-14T14:48:59.673Z,38.47
2018-05-14T14:51:03.008Z,37.69
2018-05-14T14:53:06.383Z,37.35
2018-05-14T14:55:09.890Z,37.26
2018-05-14T14:57:13.420Z,36.58
2018-05-14T14:59:16.848Z,36.27
2018-05-14T15:01:20.222Z,35.52
2018-05-14T15:03:23.649Z,35.09
2018-05-14T15:05:27.065Z,34.96
2018-05-14T15:07:30.462Z,35.00
2018-05-14T15:09:33.862Z,34.76
2018-05-14T15:11:37.962Z,34.56
2018-05-14T15:13:41.893Z,35.05
2018-05-14T15:15:45.471Z,35.76
2018-05-14T15:17:48.929Z,34.83
2018-05-14T15:19:52.422Z,34.16
2018-05-14T15:21:55.759Z,34.39
2018-05-14T15:23:59.231Z,34.24
2018-05-14T15:26:02.697Z,34.52
2018-05-14T15:28:06.292Z,33.81
2018-05-14T15:30:09.695Z,32.75
2018-05-14T15:32:14.577Z,33.23
2018-05-14T15:34:17.951Z,33.14
2018-05-14T15:36:21.433Z,33.07
2018-05-14T15:38:24.865Z,32.63
2018-05-14T15:40:29.053Z,32.64
2018-05-14T15:42:32.498Z,32.40
2018-05-14T15:44:36.659Z,32.51
2018-05-14T15:46:40.248Z,31.75
2018-05-14T15:48:43.689Z,31.83
2018-05-14T15:50:48.048Z,31.54
2018-05-14T15:52:51.450Z,31.46
2018-05-14T15:54:54.816Z,31.01
2018-05-14T15:56:58.196Z,31.58
2018-05-14T15:59:01.547Z,31.10
2018-05-14T16:01:05.783Z,30.59
2018-05-14T16:03:09.240Z,31.24
2018-05-14T16:05:12.692Z,30.29
2018-05-14T16:07:16.057Z,30.35
2018-05-14T16:09:19.410Z,30.35
2018-05-14T16:11:22.829Z,30.73
2018-05-14T16:13:26.456Z,30.79
2018-05-14T16:15:30.106Z,30.75
2018-05-14T16:17:33.583Z,30.92
2018-05-14T16:19:36.893Z,31.22
2018-05-14T16:21:40.339Z,31.76
2018-05-14T16:23:44.626Z,31.35
2018-05-14T16:25:48.150Z,30.92
2018-05-14T16:27:53.173Z,30.68
2018-05-14T16:32:13.344Z,30.80
2018-05-14T16:34:18.377Z,30.48
2018-05-14T16:36:23.603Z,30.73
2018-05-14T16:38:31.715Z,30.63
2018-05-14T16:40:36.637Z,30.41
2018-05-14T16:44:50.430Z,30.44
2018-05-14T16:46:54.307Z,30.06
2018-05-14T16:49:00.472Z,30.11
2018-05-14T16:51:08.808Z,29.46
2018-05-14T16:53:12.932Z,29.63
2018-05-14T16:55:18.163Z,29.12
2018-05-14T16:57:21.865Z,28.54
2018-05-14T16:59:25.358Z,29.22
2018-05-14T17:01:31.235Z,28.68
2018-05-14T17:03:36.965Z,28.68
2018-05-14T17:07:55.058Z,28.60
2018-05-14T17:09:59.897Z,28.13
2018-05-14T17:12:03.882Z,28.38
2018-05-14T17:14:08.966Z,28.64
2018-05-14T17:16:14.121Z,27.90
2018-05-14T18:53:57.789Z,39.80
2018-05-14T18:58:38.697Z,40.10
2018-05-14T19:08:53.435Z,41.27
2018-05-14T19:13:53.336Z,41.66
2018-05-14T19:18:50.218Z,42.29
2018-05-14T19:20:56.333Z,42.54
2018-05-14T19:23:07.493Z,42.52
2018-05-14T19:25:13.613Z,42.45
2018-05-14T19:27:19.643Z,42.38
2018-05-14T19:29:33.025Z,42.81
2018-05-14T19:31:37.786Z,43.13
2018-05-14T20:26:06.932Z,44.75
2018-05-14T20:31:02.076Z,44.86
2018-05-14T20:35:21.635Z,45.17
2018-05-14T20:42:10.314Z,45.59
2018-05-14T20:47:00.533Z,45.83
2018-05-14T20:49:09.066Z,45.57
2018-05-14T20:51:12.846Z,45.95
2018-05-14T20:55:40.914Z,46.10
2018-05-14T20:57:45.279Z,45.84
2018-05-14T20:59:53.505Z,46.08
2018-05-14T21:04:18.868Z,46.54
2018-05-14T21:06:23.949Z,46.65
2018-05-14T21:18:30.206Z,47.62
2018-05-14T21:20:34.829Z,47.91
2018-05-14T21:22:38.824Z,48.16
2018-05-14T21:24:42.210Z,48.03
2018-05-14T21:26:47.063Z,47.84
2018-05-14T21:28:51.316Z,48.30
2018-05-14T21:30:54.794Z,48.69
2018-05-14T21:32:58.241Z,48.24
2018-05-14T21:35:01.628Z,48.03
2018-05-14T21:37:08.932Z,48.44
2018-05-14T21:39:12.354Z,48.34
2018-05-14T21:41:15.849Z,48.40
2018-05-14T21:43:19.726Z,48.50
2018-05-14T21:45:23.268Z,48.66
2018-05-14T21:47:26.636Z,48.82
2018-05-14T21:49:30.774Z,48.76
2018-05-14T21:51:34.296Z,48.83
2018-05-14T21:53:37.732Z,48.47
2018-05-14T21:55:41.954Z,49.06
2018-05-14T21:57:47.296Z,49.21
2018-05-14T21:59:51.426Z,48.96
2018-05-14T22:01:54.961Z,48.90
2018-05-14T22:03:58.397Z,48.86
2018-05-14T22:06:03.725Z,49.33
2018-05-14T22:08:07.064Z,49.07
2018-05-14T22:10:10.471Z,49.20
2018-05-14T22:12:13.993Z,48.79
2018-05-14T22:14:17.380Z,49.30
2018-05-14T22:16:22.051Z,49.64
2018-05-14T22:18:25.373Z,49.42
2018-05-14T22:20:29.155Z,49.37
2018-05-14T22:22:32.572Z,49.31
2018-05-14T22:24:35.960Z,49.41
2018-05-14T22:26:39.319Z,49.32
2018-05-14T22:28:42.771Z,49.29
2018-05-14T22:30:46.155Z,49.14
2018-05-14T22:32:49.521Z,49.13
2018-05-14T22:34:52.941Z,49.44
2018-05-14T22:36:56.349Z,48.89
2018-05-14T22:38:59.778Z,49.50
2018-05-14T22:41:04.036Z,49.10
2018-05-14T22:43:07.442Z,49.46
2018-05-14T22:45:10.817Z,49.73
2018-05-14T22:47:14.401Z,49.77
2018-05-14T22:49:19.107Z,49.92
2018-05-14T22:51:22.466Z,49.84
2018-05-14T22:53:25.825Z,50.08
2018-05-14T22:55:29.153Z,50.41
2018-05-14T22:57:32.536Z,50.61
2018-05-14T22:59:35.934Z,51.24
2018-05-14T23:01:39.296Z,50.80
2018-05-14T23:03:43.387Z,51.13
2018-05-14T23:05:46.746Z,51.74
2018-05-14T23:07:50.857Z,51.72
2018-05-14T23:09:55.032Z,51.78
2018-05-14T23:11:58.395Z,52.10
2018-05-14T23:14:01.835Z,52.32
2018-05-14T23:16:05.296Z,52.06
2018-05-14T23:18:10.140Z,51.97
2018-05-14T23:20:14.404Z,52.38
2018-05-14T23:22:18.556Z,52.49
2018-05-14T23:24:23.099Z,53.07
2018-05-14T23:26:27.230Z,53.36
2018-05-14T23:28:31.426Z,53.35
2018-05-14T23:30:34.823Z,53.68
2018-05-14T23:32:38.226Z,53.98
2018-05-14T23:34:41.597Z,53.96
2018-05-14T23:36:45.068Z,54.12
2018-05-14T23:38:48.497Z,54.46
2018-05-14T23:40:51.995Z,54.44
2018-05-14T23:42:55.783Z,54.51
2018-05-14T23:44:59.952Z,54.09
2018-05-14T23:47:03.290Z,54.08
2018-05-14T23:49:06.764Z,54.19
2018-05-14T23:51:10.605Z,54.32
2018-05-14T23:53:14.777Z,54.65
2018-05-14T23:55:18.183Z,54.47
2018-05-14T23:57:21.556Z,54.87
2018-05-14T23:59:24.908Z,54.77
